Time;durP1;ratioP1;P1;durP2;ratioP2;P2;SDS_P1;SDS_P2;PMS_P1;PMS_P2;Temp;Humidity;BMP_temperature;BMP_pressure;BME280_temperature;BME280_humidity;BME280_pressure;Samples;Min_cycle;Max_cycle;Signal;HPM_P1;HPM_P2
2022/09/19 00:00:24;;;;;;;0.20;0.20;;;;;;;10.35;86.66;100947.63;6271872;28;20227;-80
2022/09/19 00:03:51;;;;;;;0.50;0.50;;;;;;;10.31;86.42;100954.25;6296721;28;20226;-82
2022/09/19 00:07:14;;;;;;;1.30;0.30;;;;;;;10.33;85.83;100955.84;6287084;28;20544;-82
2022/09/19 00:10:40;;;;;;;0.20;0.20;;;;;;;10.25;86.70;100960.19;6284094;28;20751;-83
2022/09/19 00:14:01;;;;;;;1.50;0.37;;;;;;;10.26;86.53;100961.91;6274216;28;20230;-81
2022/09/19 00:17:23;;;;;;;0.20;0.20;;;;;;;10.25;86.21;100960.19;6296587;28;20230;-81
2022/09/19 00:20:47;;;;;;;0.47;0.40;;;;;;;10.20;86.73;100976.72;6293374;28;20218;-82
2022/09/19 00:27:51;;;;;;;0.33;0.33;;;;;;;10.25;86.54;100974.50;6277539;28;20500;-83
2022/09/19 00:31:17;;;;;;;0.80;0.70;;;;;;;10.23;86.43;100976.47;6292404;28;20238;-82
2022/09/19 00:34:39;;;;;;;0.40;0.40;;;;;;;10.24;86.28;100986.25;6283060;28;20234;-82
2022/09/19 00:38:00;;;;;;;0.50;0.50;;;;;;;10.26;86.57;100981.59;6269546;28;20290;-82
2022/09/19 00:41:25;;;;;;;0.30;0.30;;;;;;;10.27;86.44;100983.31;6273778;28;20226;-81
2022/09/19 00:44:58;;;;;;;0.57;0.43;;;;;;;10.29;86.30;100977.78;6292937;28;20318;-80
2022/09/19 00:48:23;;;;;;;0.70;0.70;;;;;;;10.24;86.36;100988.13;6281082;28;20255;-80
2022/09/19 00:51:48;;;;;;;0.30;0.30;;;;;;;10.18;86.59;100989.47;6281186;28;20238;-80
2022/09/19 00:55:09;;;;;;;0.73;0.73;;;;;;;10.18;86.96;100996.75;6290692;28;20589;-80
2022/09/19 00:58:35;;;;;;;0.57;0.50;;;;;;;10.18;86.35;101004.81;6297939;28;20226;-81
2022/09/19 01:01:57;;;;;;;0.30;0.30;;;;;;;10.10;87.32;100993.78;6276879;28;20329;-81
2022/09/19 01:05:21;;;;;;;0.33;0.33;;;;;;;10.13;86.83;100998.94;6287724;28;20223;-81
2022/09/19 01:09:03;;;;;;;0.43;0.43;;;;;;;10.06;87.27;101003.97;6276150;28;20222;-81
2022/09/19 01:12:37;;;;;;;0.40;0.40;;;;;;;9.93;87.79;101007.84;6282609;28;20238;-82
2022/09/19 01:16:06;;;;;;;0.40;0.40;;;;;;;9.95;87.58;101012.09;6281517;28;20333;-82
2022/09/19 01:20:02;;;;;;;0.87;0.50;;;;;;;9.94;87.58;101014.91;6281991;28;20717;-80
2022/09/19 01:23:39;;;;;;;0.40;0.40;;;;;;;9.99;87.18;101021.63;6288694;28;20242;-81
2022/09/19 01:27:18;;;;;;;0.40;0.40;;;;;;;9.93;87.84;101026.69;6283857;28;20313;-82
2022/09/19 01:30:46;;;;;;;0.87;0.83;;;;;;;9.86;88.27;101039.81;6296367;28;20231;-81
2022/09/19 01:34:12;;;;;;;1.03;0.93;;;;;;;9.88;87.99;101036.97;6274939;28;20325;-80
2022/09/19 01:37:38;;;;;;;0.40;0.30;;;;;;;9.86;88.11;101039.81;6276854;28;20218;-81
2022/09/19 01:40:59;;;;;;;1.40;0.80;;;;;;;9.81;88.79;101043.84;6288458;28;20676;-80
2022/09/19 01:44:23;;;;;;;0.50;0.50;;;;;;;9.88;88.36;101047.75;6282148;28;20234;-81
2022/09/19 01:47:58;;;;;;;0.67;0.53;;;;;;;9.85;88.41;101058.75;6266533;28;20223;-80
2022/09/19 01:51:27;;;;;;;1.30;0.97;;;;;;;9.84;88.25;101055.22;6270557;28;20781;-79
2022/09/19 01:54:58;;;;;;;0.73;0.40;;;;;;;9.89;87.84;101046.78;6281918;28;20226;-80
2022/09/19 01:58:25;;;;;;;0.70;0.70;;;;;;;9.82;88.17;101056.34;6278045;28;20242;-81
2022/09/19 02:01:51;;;;;;;0.50;0.50;;;;;;;9.75;88.56;101060.50;6281335;28;20230;-81
2022/09/19 02:05:22;;;;;;;1.67;1.57;;;;;;;9.70;88.39;101060.03;6287725;28;20520;-81
2022/09/19 02:08:49;;;;;;;1.80;0.57;;;;;;;9.75;88.38;101066.75;6265652;28;20334;-81
2022/09/19 02:12:22;;;;;;;0.83;0.77;;;;;;;9.75;88.76;101073.97;6284067;28;20595;-80
2022/09/19 02:15:49;;;;;;;0.80;0.70;;;;;;;9.80;88.17;101077.16;6276164;28;20227;-81
2022/09/19 02:19:15;;;;;;;0.67;0.67;;;;;;;9.81;88.13;101077.00;6267803;28;20222;-81
2022/09/19 02:22:45;;;;;;;0.57;0.40;;;;;;;9.79;87.97;101080.81;6280446;28;20766;-82
2022/09/19 02:26:09;;;;;;;0.40;0.40;;;;;;;9.80;87.70;101078.00;6294527;28;20226;-82
2022/09/19 02:29:33;;;;;;;1.23;0.67;;;;;;;9.76;88.07;101083.78;6275962;28;20226;-82
2022/09/19 02:32:56;;;;;;;1.57;0.43;;;;;;;9.61;88.88;101091.25;6276243;28;20227;-83
2022/09/19 02:36:25;;;;;;;1.00;0.53;;;;;;;9.71;88.21;101092.22;6294417;28;20607;-81
2022/09/19 02:39:51;;;;;;;0.50;0.50;;;;;;;9.75;87.65;101090.13;6266268;28;21204;-81
2022/09/19 02:43:36;;;;;;;1.23;0.70;;;;;;;9.78;88.18;101093.44;6273762;28;20230;-81
2022/09/19 02:47:04;;;;;;;0.40;0.40;;;;;;;9.76;88.19;101098.09;6276069;28;20226;-81
2022/09/19 02:50:34;;;;;;;0.80;0.60;;;;;;;9.72;88.02;101101.16;6272744;28;20229;-80
2022/09/19 02:54:01;;;;;;;1.70;0.80;;;;;;;9.65;88.81;101109.72;6276732;28;20250;-81
2022/09/19 02:57:26;;;;;;;0.57;0.57;;;;;;;9.68;88.40;101107.78;6277560;28;20631;-82
2022/09/19 03:00:52;;;;;;;0.50;0.50;;;;;;;9.69;88.19;101113.03;6266554;28;20797;-81
2022/09/19 03:04:20;;;;;;;1.30;0.60;;;;;;;9.65;88.62;101116.94;6284795;28;20226;-81
2022/09/19 03:07:55;;;;;;;0.40;0.40;;;;;;;9.72;88.25;101123.53;6278515;28;20238;-81
2022/09/19 03:11:22;;;;;;;0.40;0.40;;;;;;;9.65;88.14;101130.41;6287993;28;20223;-82
2022/09/19 03:14:45;;;;;;;0.70;0.70;;;;;;;9.60;88.67;101137.97;6283923;28;20250;-81
2022/09/19 03:18:13;;;;;;;0.83;0.83;;;;;;;9.63;88.89;101141.31;6288148;28;20234;-81
2022/09/19 03:21:36;;;;;;;4.27;2.97;;;;;;;9.71;89.12;101134.41;6294605;28;20251;-81
2022/09/19 03:25:01;;;;;;;1.63;1.10;;;;;;;9.68;88.86;101136.38;6287542;28;20229;-82
2022/09/19 03:28:24;;;;;;;0.87;0.50;;;;;;;9.63;88.50;101148.50;6284566;28;20602;-81
2022/09/19 03:31:52;;;;;;;0.73;0.73;;;;;;;9.68;88.24;101157.06;6280389;28;20239;-82
2022/09/19 03:35:14;;;;;;;2.83;0.70;;;;;;;9.62;88.35;101150.34;6282428;28;20238;-83
2022/09/19 03:38:40;;;;;;;0.80;0.80;;;;;;;9.65;88.25;101158.19;6280648;28;20222;-81
2022/09/19 03:42:01;;;;;;;0.57;0.33;;;;;;;9.65;87.63;101166.25;6283847;28;20223;-81
2022/09/19 03:45:25;;;;;;;0.40;0.40;;;;;;;9.61;87.97;101163.94;6280078;28;20780;-80
2022/09/19 03:48:48;;;;;;;3.10;0.60;;;;;;;9.54;88.84;101165.38;6281284;28;20258;-80
2022/09/19 03:52:09;;;;;;;1.30;1.20;;;;;;;9.52;88.70;101176.28;6272486;28;20218;-80
2022/09/19 03:55:32;;;;;;;8.03;4.87;;;;;;;9.51;88.81;101179.09;6279942;28;20317;-81
2022/09/19 03:58:54;;;;;;;1.37;1.27;;;;;;;9.53;88.42;101182.53;6279935;28;20275;-81
2022/09/19 04:02:15;;;;;;;0.70;0.70;;;;;;;9.54;88.29;101177.03;6276299;28;20353;-81
2022/09/19 04:05:38;;;;;;;1.53;0.70;;;;;;;9.50;88.76;101175.56;6274690;28;20234;-80
2022/09/19 04:09:01;;;;;;;0.77;0.60;;;;;;;9.49;88.35;101181.06;6277619;28;20222;-80
2022/09/19 04:12:22;;;;;;;0.60;0.60;;;;;;;9.53;88.83;101187.91;6280317;28;20323;-80
2022/09/19 04:15:43;;;;;;;0.87;0.67;;;;;;;9.56;88.31;101193.91;6282703;28;20219;-79
2022/09/19 04:19:09;;;;;;;2.47;1.17;;;;;;;9.61;88.02;101197.09;6280305;28;20230;-80
2022/09/19 04:22:43;;;;;;;1.50;0.73;;;;;;;9.58;88.38;101193.75;6276246;28;20230;-80
2022/09/19 04:26:11;;;;;;;0.50;0.50;;;;;;;9.58;88.19;101200.00;6265271;28;20231;-80
2022/09/19 04:29:35;;;;;;;6.27;4.27;;;;;;;9.65;88.47;101200.38;6281621;28;20504;-79
2022/09/19 04:32:58;;;;;;;5.23;3.80;;;;;;;9.72;88.10;101206.97;6282996;28;20349;-79
2022/09/19 04:36:20;;;;;;;2.07;1.53;;;;;;;9.81;88.26;101205.38;6279356;28;20225;-80
2022/09/19 04:39:47;;;;;;;1.10;1.00;;;;;;;9.97;87.36;101198.63;6279682;28;20222;-80
2022/09/19 04:43:12;;;;;;;4.83;4.00;;;;;;;9.98;87.79;101211.13;6291832;28;20617;-80
2022/09/19 04:46:35;;;;;;;1.87;1.60;;;;;;;10.15;87.33;101207.09;6280118;28;20592;-79
2022/09/19 04:50:01;;;;;;;1.53;1.30;;;;;;;10.27;87.13;101206.09;6280675;28;20498;-80
2022/09/19 04:53:27;;;;;;;4.53;2.90;;;;;;;10.24;87.23;101211.75;6273834;28;20231;-80
2022/09/19 04:56:52;;;;;;;2.13;1.33;;;;;;;10.27;86.81;101206.94;6275053;28;20226;-79
2022/09/19 05:00:13;;;;;;;2.10;0.60;;;;;;;10.30;86.99;101219.31;6276160;28;20248;-81
2022/09/19 05:03:38;;;;;;;2.97;0.83;;;;;;;10.38;86.95;101211.47;6285435;28;20363;-83
2022/09/19 05:06:59;;;;;;;0.93;0.73;;;;;;;10.42;87.56;101226.38;6259162;28;20237;-85
2022/09/19 05:10:22;;;;;;;0.83;0.83;;;;;;;10.34;87.84;101221.66;6296070;28;20234;-84
2022/09/19 05:13:45;;;;;;;1.83;0.90;;;;;;;10.50;87.56;101223.91;6289162;28;20218;-81
2022/09/19 05:17:10;;;;;;;2.53;1.20;;;;;;;10.60;87.63;101234.81;6296460;28;20252;-86
2022/09/19 05:20:36;;;;;;;1.30;0.77;;;;;;;10.57;87.88;101230.53;6281685;28;20231;-83
2022/09/19 05:23:57;;;;;;;2.90;1.00;;;;;;;10.60;88.18;101235.63;6277844;28;20234;-81
2022/09/19 05:27:19;;;;;;;0.90;0.70;;;;;;;10.67;88.31;101238.69;6288045;28;20226;-83
2022/09/19 05:30:49;;;;;;;3.93;1.03;;;;;;;10.74;88.64;101235.38;6288293;28;20238;-87
2022/09/19 05:34:13;;;;;;;2.73;0.90;;;;;;;10.81;88.89;101239.25;6289953;28;20500;-84
2022/09/19 05:37:40;;;;;;;4.20;1.17;;;;;;;10.86;88.24;101244.25;6288200;28;20222;-83
2022/09/19 05:41:09;;;;;;;2.13;1.00;;;;;;;10.92;89.06;101243.72;6288293;28;20226;-84
2022/09/19 05:44:54;;;;;;;3.53;0.87;;;;;;;11.02;88.49;101245.53;6285995;28;20254;-84
2022/09/19 05:48:17;;;;;;;8.53;1.03;;;;;;;11.10;88.03;101243.03;6277513;28;20317;-87
2022/09/19 05:51:38;;;;;;;2.40;0.93;;;;;;;11.26;87.37;101254.22;6251101;28;20227;-80
2022/09/19 05:55:04;;;;;;;1.13;1.00;;;;;;;11.34;87.45;101260.81;6270722;28;20345;-83
2022/09/19 05:58:51;;;;;;;2.20;1.03;;;;;;;11.24;88.12;101256.19;6249557;28;20234;-77
2022/09/19 06:02:12;;;;;;;1.23;0.90;;;;;;;11.24;87.79;101263.47;6296507;28;20321;-80
2022/09/19 06:05:52;;;;;;;6.23;1.53;;;;;;;11.12;89.08;101259.06;6277183;28;20234;-84
2022/09/19 06:09:14;;;;;;;4.53;1.30;;;;;;;11.11;88.88;101278.97;6271167;28;20238;-80
2022/09/19 06:12:36;;;;;;;6.20;0.97;;;;;;;11.08;89.09;101269.28;6261147;28;20651;-81
2022/09/19 06:16:00;;;;;;;6.47;1.30;;;;;;;11.09;88.88;101276.41;6265830;28;20231;-81
2022/09/19 06:19:59;;;;;;;1.73;1.37;;;;;;;11.11;89.00;101278.97;6185557;28;20236;-83
2022/09/19 06:23:39;;;;;;;1.67;1.10;;;;;;;11.13;89.20;101282.41;6227126;28;20321;-81
2022/09/19 06:27:01;;;;;;;1.57;1.13;;;;;;;11.25;88.83;101284.91;6288362;28;20222;-76
2022/09/19 06:30:22;;;;;;;1.60;1.50;;;;;;;11.45;88.74;101285.06;6272082;28;20243;-76
2022/09/19 06:33:52;;;;;;;1.93;1.23;;;;;;;11.56;88.14;101291.22;6291256;28;20591;-76
2022/09/19 06:37:27;;;;;;;3.30;1.10;;;;;;;11.67;88.11;101290.34;6270197;28;20238;-82
2022/09/19 06:40:50;;;;;;;3.87;1.20;;;;;;;11.68;89.19;101292.06;6267497;28;20226;-85
2022/09/19 06:44:50;;;;;;;4.40;1.27;;;;;;;11.93;88.32;101288.94;6149840;28;20234;-73
2022/09/19 06:48:48;;;;;;;3.93;1.07;;;;;;;12.10;87.80;101295.56;6197773;28;20242;-78
2022/09/19 06:52:29;;;;;;;10.07;1.93;;;;;;;12.20;88.05;101297.31;6292944;28;20234;-79
2022/09/19 06:55:52;;;;;;;2.77;2.37;;;;;;;12.35;87.81;101297.78;6289955;28;20915;-76
2022/09/19 06:59:22;;;;;;;3.47;1.50;;;;;;;12.48;86.69;101301.06;6290963;28;20318;-88
2022/09/19 07:02:43;;;;;;;2.93;1.63;;;;;;;12.62;87.06;101306.13;6290129;28;20379;-81
2022/09/19 07:06:05;;;;;;;8.30;2.97;;;;;;;12.72;86.46;101301.59;6306794;28;20235;-79
2022/09/19 07:09:38;;;;;;;6.80;2.33;;;;;;;12.79;86.80;101306.28;6270328;28;20239;-80
2022/09/19 07:13:02;;;;;;;5.00;2.00;;;;;;;12.92;86.11;101313.28;6286391;28;20588;-84
2022/09/19 07:16:24;;;;;;;2.23;1.93;;;;;;;13.09;85.78;101318.91;6285374;28;20349;-85
2022/09/19 07:19:47;;;;;;;7.40;3.10;;;;;;;13.25;85.48;101321.03;6282276;28;20247;-82
2022/09/19 07:23:26;;;;;;;7.33;3.20;;;;;;;13.62;84.33;101324.72;6287574;28;20497;-86
2022/09/19 07:26:56;;;;;;;6.97;2.13;;;;;;;13.82;83.24;101329.09;6292885;28;20317;-85
2022/09/19 07:30:28;;;;;;;7.90;2.53;;;;;;;13.90;83.22;101326.50;6288356;28;20230;-88
2022/09/19 07:33:49;;;;;;;2.53;1.83;;;;;;;13.98;82.86;101331.19;6298817;28;20280;-88
2022/09/19 07:37:12;;;;;;;2.03;1.67;;;;;;;14.10;82.75;101325.44;6310308;28;20288;-84
2022/09/19 07:40:42;;;;;;;3.90;2.80;;;;;;;14.22;82.39;101329.72;6301646;28;20618;-85
2022/09/19 07:44:14;;;;;;;4.37;1.53;;;;;;;14.37;82.15;101330.09;6297495;28;20237;-83
2022/09/19 07:48:04;;;;;;;1.97;1.20;;;;;;;14.33;81.55;101340.38;6295720;28;20699;-80
2022/09/19 07:51:54;;;;;;;3.57;1.53;;;;;;;14.26;82.13;101333.84;6278834;28;20231;-79
2022/09/19 07:55:17;;;;;;;7.57;1.97;;;;;;;14.16;81.85;101338.41;6294842;28;20226;-87
2022/09/19 07:58:38;;;;;;;5.43;2.27;;;;;;;14.17;82.44;101356.41;6283533;28;20226;-79
2022/09/19 08:01:59;;;;;;;6.83;1.60;;;;;;;14.24;81.85;101345.81;6289630;28;20226;-79
2022/09/19 08:05:36;;;;;;;5.70;1.40;;;;;;;14.45;80.86;101345.63;6281448;28;20226;-79
2022/09/19 08:08:58;;;;;;;6.00;1.60;;;;;;;14.43;80.83;101350.34;6289368;28;20247;-81
2022/09/19 08:12:43;;;;;;;7.20;3.70;;;;;;;14.54;80.70;101352.88;6306418;28;20290;-78
2022/09/19 08:16:06;;;;;;;6.23;1.63;;;;;;;14.77;80.00;101352.31;6294838;28;20588;-78
2022/09/19 08:19:27;;;;;;;7.90;2.00;;;;;;;14.97;79.57;101348.50;6305124;28;20226;-79
2022/09/19 08:22:50;;;;;;;2.23;1.33;;;;;;;15.04;78.57;101355.00;6286305;28;20231;-86
2022/09/19 08:26:11;;;;;;;2.00;1.30;;;;;;;15.03;77.66;101371.44;6281174;28;20813;-84
2022/09/19 08:29:33;;;;;;;5.67;1.67;;;;;;;15.19;77.61;101353.47;6285955;28;20238;-79
2022/09/19 08:33:01;;;;;;;6.73;1.47;;;;;;;15.11;76.80;101352.53;6277757;28;20822;-79
2022/09/19 08:36:22;;;;;;;2.60;1.63;;;;;;;15.22;77.39;101360.47;6290318;28;20234;-77
2022/09/19 08:43:52;;;;;;;5.23;1.23;;;;;;;15.59;75.80;101368.47;6297718;28;20607;-85
2022/09/19 08:47:22;;;;;;;1.83;1.40;;;;;;;16.16;75.91;101372.50;6304508;28;22070;-83
2022/09/19 08:50:51;;;;;;;4.70;1.83;;;;;;;16.00;74.14;101368.66;6301621;28;20320;-77
2022/09/19 08:54:16;;;;;;;4.37;1.57;;;;;;;16.91;72.88;101367.13;6289238;28;20222;-73
2022/09/19 08:57:49;;;;;;;3.30;1.20;;;;;;;17.08;69.44;101376.22;6282084;28;20226;-77
2022/09/19 09:01:11;;;;;;;1.37;0.80;;;;;;;16.78;68.20;101367.59;6289994;28;20254;-78
2022/09/19 09:04:51;;;;;;;1.00;0.70;;;;;;;16.93;67.42;101376.00;6302036;28;20607;-82
2022/09/19 09:08:24;;;;;;;1.60;1.10;;;;;;;17.85;65.23;101371.25;6288353;28;20583;-82
2022/09/19 09:12:09;;;;;;;3.17;2.17;;;;;;;17.48;65.54;101377.13;6291042;28;20247;-82
2022/09/19 09:16:00;;;;;;;1.07;0.90;;;;;;;16.95;66.18;101384.00;6284308;28;20226;-82
2022/09/19 09:19:52;;;;;;;4.00;2.67;;;;;;;17.21;66.01;101374.69;6290837;28;20238;-85
2022/09/19 09:23:18;;;;;;;2.70;1.20;;;;;;;17.28;66.26;101378.47;6291833;28;20223;-84
2022/09/19 09:26:51;;;;;;;4.03;1.63;;;;;;;17.53;65.58;101380.25;6298918;28;20318;-85
2022/09/19 09:30:16;;;;;;;3.93;1.27;;;;;;;17.51;64.44;101371.41;6264482;28;20498;-80
2022/09/19 09:33:51;;;;;;;1.45;1.20;;;;;;;17.47;65.58;101378.19;6291989;28;20233;-80
2022/09/19 09:37:20;;;;;;;2.87;1.30;;;;;;;17.75;64.27;101369.72;6290143;28;20214;-83
2022/09/19 09:44:44;;;;;;;4.57;1.70;;;;;;;17.45;64.90;101369.31;6285095;28;20231;-81
2022/09/19 09:48:14;;;;;;;5.70;1.90;;;;;;;17.55;65.13;101377.34;6284467;28;20230;-84
2022/09/19 09:51:51;;;;;;;7.03;1.63;;;;;;;17.74;64.45;101384.34;6285187;28;20235;-80
2022/09/19 10:07:11;;;;;;;5.70;1.52;;;;;;;18.79;58.99;101377.72;6297339;28;20219;-75
2022/09/19 10:10:34;;;;;;;1.10;0.65;;;;;;;18.79;57.82;101372.25;6291816;28;20237;-76
2022/09/19 10:14:01;;;;;;;1.10;0.75;;;;;;;18.72;57.46;101371.25;6270764;28;20300;-76
2022/09/19 10:17:25;;;;;;;2.03;0.70;;;;;;;18.89;55.82;101374.75;6282689;28;20230;-76
2022/09/19 10:20:51;;;;;;;1.45;0.63;;;;;;;19.12;54.83;101373.81;6278151;28;20560;-75
2022/09/19 10:24:42;;;;;;;1.25;0.60;;;;;;;19.48;53.30;101367.78;6290944;28;20230;-75
2022/09/19 10:28:18;;;;;;;0.60;0.50;;;;;;;20.32;52.40;101376.63;6290271;28;20642;-75
2022/09/19 10:31:57;;;;;;;2.20;0.80;;;;;;;21.23;50.44;101368.88;6301234;28;20254;-75
2022/09/19 10:35:36;;;;;;;2.10;0.88;;;;;;;20.60;50.71;101366.75;6287325;28;20614;-76
2022/09/19 10:39:01;;;;;;;2.33;1.33;;;;;;;19.51;54.63;101367.41;6286084;28;20230;-77
2022/09/19 10:42:47;;;;;;;3.30;1.17;;;;;;;18.35;58.74;101369.13;6291587;28;20345;-77
2022/09/19 10:46:20;;;;;;;8.70;2.10;;;;;;;18.43;59.71;101370.97;6287100;28;20599;-76
2022/09/19 10:49:48;;;;;;;1.00;0.70;;;;;;;18.50;59.52;101369.28;6296030;28;20234;-75
2022/09/19 10:53:22;;;;;;;4.05;1.10;;;;;;;20.73;53.10;101355.13;6299371;28;20292;-77
2022/09/19 10:56:47;;;;;;;1.05;0.70;;;;;;;27.77;39.08;101347.63;6267316;28;20233;-84
2022/09/19 11:00:23;;;;;;;3.58;0.88;;;;;;;31.47;30.43;101345.88;6297570;28;20635;-86
2022/09/19 11:04:02;;;;;;;6.30;0.57;;;;;;;32.04;28.42;101343.34;6309030;28;20242;-82
2022/09/19 11:07:29;;;;;;;0.82;0.63;;;;;;;28.47;33.61;101341.09;6297691;28;20235;-81
2022/09/19 11:10:52;;;;;;;2.80;1.10;;;;;;;28.79;32.80;101349.91;6293930;28;20234;-86
2022/09/19 11:14:32;;;;;;;1.73;0.30;;;;;;;26.92;33.62;101348.81;6277824;28;20218;-78
2022/09/19 11:18:09;;;;;;;0.82;0.50;;;;;;;25.87;36.97;101354.50;6287628;28;20250;-80
2022/09/19 11:21:56;;;;;;;0.65;0.20;;;;;;;29.09;30.37;101349.72;6289587;28;20222;-78
2022/09/19 11:25:25;;;;;;;1.48;0.75;;;;;;;31.48;26.88;101353.13;6297677;28;20842;-83
2022/09/19 11:29:06;;;;;;;2.90;0.30;;;;;;;27.07;31.93;101337.34;6288076;28;20678;-82
2022/09/19 11:32:59;;;;;;;2.47;1.10;;;;;;;29.14;30.96;101335.94;6277762;28;20239;-76
2022/09/19 11:36:50;;;;;;;3.00;0.47;;;;;;;29.89;28.56;101334.63;6300247;28;20238;-81
2022/09/19 11:40:26;;;;;;;3.03;0.20;;;;;;;31.64;24.76;101340.19;6290108;28;20222;-84
2022/09/19 11:44:01;;;;;;;2.10;1.80;;;;;;;29.64;27.07;101324.97;6290127;28;20212;-80
2022/09/19 11:47:45;;;;;;;1.58;0.77;;;;;;;25.10;35.44;101338.16;6305763;28;20730;-78
2022/09/19 11:51:25;;;;;;;0.28;0.28;;;;;;;26.36;33.43;101337.94;6310011;28;20230;-89
2022/09/19 11:55:02;;;;;;;0.40;0.40;;;;;;;24.55;38.08;101325.84;6291166;28;20238;-77
2022/09/19 11:58:33;;;;;;;0.52;0.50;;;;;;;23.26;41.74;101342.09;6291568;28;20226;-78
2022/09/19 12:02:09;;;;;;;0.70;0.35;;;;;;;21.32;43.64;101348.50;6281842;28;20514;-76
2022/09/19 12:05:45;;;;;;;0.32;0.32;;;;;;;20.20;47.80;101358.97;6283466;28;20337;-83
2022/09/19 12:09:17;;;;;;;3.90;2.15;;;;;;;19.52;49.99;101372.72;6286407;28;20218;-75
2022/09/19 12:12:45;;;;;;;2.42;0.77;;;;;;;18.65;56.51;101392.09;6294517;28;20305;-75
2022/09/19 12:16:25;;;;;;;1.65;1.20;;;;;;;18.01;60.47;101382.13;6293363;28;20499;-75
2022/09/19 12:19:53;;;;;;;6.50;4.03;;;;;;;17.68;62.25;101391.34;6280599;28;20286;-77
2022/09/19 12:27:11;;;;;;;2.70;1.10;;;;;;;16.60;66.05;101379.59;6291170;28;20333;-77
2022/09/19 12:30:39;;;;;;;0.55;0.55;;;;;;;16.33;65.92;101388.78;6289920;28;20226;-77
2022/09/19 12:34:14;;;;;;;2.60;0.70;;;;;;;16.02;64.23;101387.53;6292808;28;20679;-74
2022/09/19 12:37:43;;;;;;;0.63;0.50;;;;;;;15.93;65.75;101394.78;6290702;28;20221;-78
2022/09/19 12:41:12;;;;;;;1.15;0.47;;;;;;;15.62;65.54;101406.22;6292337;28;20630;-76
2022/09/19 12:44:40;;;;;;;3.37;1.90;;;;;;;15.46;66.81;101406.91;6305813;28;20233;-82
2022/09/19 12:48:14;;;;;;;8.90;1.73;;;;;;;15.59;67.00;101403.81;6303707;28;20808;-80
2022/09/19 12:51:59;;;;;;;1.13;0.67;;;;;;;15.71;68.22;101408.00;6284928;28;20234;-80
2022/09/19 12:55:25;;;;;;;5.23;4.80;;;;;;;15.72;68.89;101402.44;6288683;28;20230;-79
2022/09/19 12:58:57;;;;;;;5.20;4.13;;;;;;;15.89;67.83;101406.13;6301059;28;20235;-79
2022/09/19 13:02:27;;;;;;;1.10;0.80;;;;;;;15.93;68.01;101405.66;6302643;28;20499;-77
2022/09/19 13:05:55;;;;;;;0.30;0.30;;;;;;;16.16;67.30;101391.53;6285659;28;20731;-80
2022/09/19 13:09:22;;;;;;;0.63;0.40;;;;;;;16.33;67.11;101382.47;6273250;28;20225;-77
2022/09/19 13:12:50;;;;;;;0.60;0.60;;;;;;;16.21;67.15;101386.50;6284740;28;20571;-82
2022/09/19 13:16:14;;;;;;;1.03;0.50;;;;;;;16.19;67.96;101393.97;6300170;28;20599;-80
2022/09/19 13:23:33;;;;;;;0.67;0.60;;;;;;;15.79;69.85;101398.03;6289243;28;20211;-76
2022/09/19 13:26:57;;;;;;;1.60;1.30;;;;;;;15.52;70.01;101384.53;6293619;28;20230;-80
2022/09/19 13:30:49;;;;;;;1.90;1.10;;;;;;;15.50;70.59;101375.69;6297161;28;20568;-79
2022/09/19 13:34:39;;;;;;;0.60;0.43;;;;;;;15.56;71.04;101377.78;6211072;28;20229;-78
2022/09/19 13:38:17;;;;;;;0.93;0.63;;;;;;;15.43;70.91;101381.91;6297294;28;20547;-81
2022/09/19 13:41:45;;;;;;;1.10;0.53;;;;;;;15.33;71.90;101405.56;6272791;28;20234;-81
2022/09/19 13:45:16;;;;;;;1.80;0.73;;;;;;;15.10;71.90;101402.44;6304378;28;20317;-79
2022/09/19 13:48:43;;;;;;;0.60;0.40;;;;;;;15.17;71.28;101401.66;6302186;28;20238;-78
2022/09/19 13:52:10;;;;;;;1.60;0.80;;;;;;;15.23;69.21;101402.06;6296021;28;20257;-78
2022/09/19 13:55:33;;;;;;;1.20;0.40;;;;;;;15.17;70.56;101414.38;6277747;28;20672;-76
2022/09/19 13:59:17;;;;;;;1.27;0.60;;;;;;;15.33;69.77;101417.28;6306357;28;20234;-77
2022/09/19 14:02:40;;;;;;;0.73;0.60;;;;;;;16.51;66.36;101415.94;6304676;28;20234;-77
2022/09/19 14:06:24;;;;;;;0.70;0.70;;;;;;;23.22;48.12;101404.09;6306853;28;20313;-82
2022/09/19 14:09:46;;;;;;;6.03;4.93;;;;;;;25.40;41.21;101402.81;6292195;28;20819;-83
2022/09/19 14:13:35;;;;;;;1.55;1.45;;;;;;;26.52;37.66;101405.63;6294973;28;20222;-82
2022/09/19 14:17:25;;;;;;;0.52;0.52;;;;;;;26.96;34.63;101407.31;6306269;28;20226;-82
2022/09/19 14:20:52;;;;;;;4.00;3.65;;;;;;;26.56;35.05;101402.19;6302983;28;20257;-82
2022/09/19 14:24:21;;;;;;;2.83;1.23;;;;;;;26.24;37.06;101414.41;6304596;28;20322;-81
2022/09/19 14:28:06;;;;;;;0.32;0.32;;;;;;;26.32;36.22;101407.75;6310377;28;20226;-83
2022/09/19 14:31:37;;;;;;;0.60;0.60;;;;;;;25.41;39.42;101409.19;6300011;28;20222;-83
2022/09/19 14:35:30;;;;;;;1.58;0.52;;;;;;;23.14;43.33;101418.00;6306983;28;20601;-82
2022/09/19 14:39:40;;;;;;;0.55;0.32;;;;;;;22.05;45.72;101416.00;6309150;28;20226;-83
2022/09/19 14:43:37;;;;;;;1.23;0.45;;;;;;;22.41;44.31;101404.84;6306238;28;20234;-84
2022/09/19 14:47:01;;;;;;;1.27;0.95;;;;;;;22.75;46.14;101403.03;6291518;28;20238;-86
2022/09/19 14:50:25;;;;;;;1.35;0.47;;;;;;;22.13;46.23;101408.44;6305673;28;20253;-89
2022/09/19 14:53:49;;;;;;;2.45;0.30;;;;;;;20.09;50.18;101402.38;6306537;28;20255;-85
2022/09/19 14:57:16;;;;;;;0.82;0.75;;;;;;;20.32;51.54;101394.97;6289887;28;20346;-86
2022/09/19 15:00:43;;;;;;;2.50;0.50;;;;;;;20.82;48.90;101400.56;6299793;28;20309;-86
2022/09/19 15:04:13;;;;;;;0.50;0.50;;;;;;;21.02;48.81;101407.22;6303054;28;20581;-87
2022/09/19 15:07:42;;;;;;;0.63;0.63;;;;;;;21.13;47.30;101403.97;6296416;28;20226;-87
2022/09/19 15:11:05;;;;;;;0.98;0.50;;;;;;;19.74;52.02;101409.31;6295938;28;20226;-87
2022/09/19 15:14:29;;;;;;;2.58;0.68;;;;;;;18.53;53.95;101420.81;6291536;28;20236;-89
2022/09/19 15:17:53;;;;;;;0.43;0.40;;;;;;;18.16;55.64;101417.78;6292520;28;20226;-86
2022/09/19 15:21:17;;;;;;;0.52;0.52;;;;;;;17.67;55.93;101427.81;6287110;28;20309;-88
2022/09/19 15:24:50;;;;;;;0.70;0.30;;;;;;;17.44;56.39;101441.19;6295346;28;20235;-86
2022/09/19 15:28:25;;;;;;;2.38;0.30;;;;;;;17.44;56.68;101441.19;6311842;28;20589;-88
2022/09/19 15:31:49;;;;;;;0.25;0.25;;;;;;;17.52;57.37;101448.59;6302525;28;20226;-86
2022/09/19 15:35:16;;;;;;;1.45;0.45;;;;;;;18.21;56.45;101451.69;6310341;28;20239;-87
2022/09/19 15:38:42;;;;;;;0.32;0.20;;;;;;;18.40;52.98;101444.19;6304137;28;20259;-90
2022/09/19 15:42:06;;;;;;;1.77;0.52;;;;;;;18.56;54.27;101447.78;6302982;28;20223;-88
2022/09/19 15:45:46;;;;;;;0.35;0.35;;;;;;;18.51;53.49;101450.16;6306701;28;20250;-86
2022/09/19 15:49:26;;;;;;;0.20;0.20;;;;;;;18.18;54.26;101446.59;6303542;28;20239;-88
2022/09/19 15:52:48;;;;;;;0.30;0.20;;;;;;;17.65;55.17;101459.03;6321564;28;20227;-86
2022/09/19 15:56:13;;;;;;;0.93;0.28;;;;;;;17.49;55.19;101457.97;6285135;28;20234;-86
2022/09/19 15:59:45;;;;;;;0.65;0.65;;;;;;;17.51;55.73;101455.91;6303219;28;20517;-86
2022/09/19 16:03:07;;;;;;;1.45;0.47;;;;;;;17.32;56.30;101460.75;6283519;28;20231;-85
2022/09/19 16:10:21;;;;;;;2.05;0.50;;;;;;;17.73;56.13;101465.31;6304233;28;20226;-85
2022/09/19 16:13:44;;;;;;;4.10;3.45;;;;;;;17.89;55.94;101464.50;6282125;28;20537;-83
2022/09/19 16:17:12;;;;;;;8.27;3.00;;;;;;;17.90;56.22;101461.59;6297311;28;20664;-79
2022/09/19 16:20:40;;;;;;;5.95;4.13;;;;;;;17.98;55.66;101475.22;6300442;28;20222;-84
2022/09/19 16:24:02;;;;;;;1.85;1.08;;;;;;;18.14;55.73;101471.69;6290581;28;20226;-83
2022/09/19 16:27:27;;;;;;;6.85;3.38;;;;;;;18.31;56.55;101479.66;6282371;28;20255;-82
2022/09/19 16:30:51;;;;;;;6.38;3.92;;;;;;;18.32;56.66;101494.19;6292388;28;20255;-80
2022/09/19 16:34:32;;;;;;;4.07;1.60;;;;;;;17.97;57.08;101492.66;6286068;28;20237;-86
2022/09/19 16:38:07;;;;;;;3.03;1.00;;;;;;;18.21;57.21;101489.91;6299371;28;20235;-90
2022/09/19 16:41:35;;;;;;;2.88;1.70;;;;;;;18.07;57.50;101526.06;6292997;28;20226;-82
2022/09/19 16:45:17;;;;;;;2.70;1.35;;;;;;;17.55;54.06;101544.53;6297119;28;20271;-85
2022/09/19 16:48:38;;;;;;;1.40;1.20;;;;;;;17.10;54.37;101545.81;6294158;28;20247;-80
2022/09/19 16:52:02;;;;;;;1.33;0.88;;;;;;;16.73;55.00;101548.81;6283745;28;20230;-79